Time,TemperatureF,DewpointF,PressureIn,WindDirection,WindDirectionDegrees,WindSpeedMPH,WindSpeedGustMPH,Humidity,HourlyPrecipIn,Conditions,Clouds,dailyrainin,SoftwareType,DateUTC
2013-12-12 00:00:00,32.2,14.2,30.12,NW,324,2.7,4.0,47,0.00,,CLR,0.00,VWS V14.01,2013-12-12 05:00:00,
2013-12-12 00:01:00,32.2,14.2,30.12,NW,324,2.7,4.0,47,0.00,,CLR,0.00,VWS V14.01,2013-12-12 05:01:00,
2013-12-12 00:02:00,32.4,14.4,30.12,NNW,345,2.2,4.0,47,0.00,,CLR,0.00,VWS V14.01,2013-12-12 05:02:00,
2013-12-12 00:03:00,32.4,14.4,30.12,North,357,2.7,3.6,47,0.00,,CLR,0.00,VWS V14.01,2013-12-12 05:03:00,
2013-12-12 00:04:00,32.4,14.4,30.12,NE,54,3.6,6.3,47,0.00,,CLR,0.00,VWS V14.01,2013-12-12 05:04:00,
2013-12-12 00:09:00,32.4,14.4,30.12,NE,54,3.1,5.8,47,0.00,,CLR,0.00,VWS V14.01,2013-12-12 05:09:00,
2013-12-12 00:14:00,33.1,15.1,30.12,NE,51,7.6,7.6,47,0.00,,CLR,0.00,VWS V14.01,2013-12-12 05:14:00,
2013-12-12 00:19:00,33.6,15.6,30.12,NNE,31,3.1,8.1,47,0.00,,CLR,0.00,VWS V14.01,2013-12-12 05:19:00,
2013-12-12 00:24:00,33.8,15.2,30.12,NE,52,5.8,8.1,46,0.00,,CLR,0.00,VWS V14.01,2013-12-12 05:24:00,
2013-12-12 00:30:00,34.0,15.4,30.12,East,84,8.3,11.0,46,0.00,,CLR,0.00,VWS V14.01,2013-12-12 05:30:00,
2013-12-12 00:35:00,33.8,15.2,30.12,North,3,6.3,12.8,46,0.00,,CLR,0.00,VWS V14.01,2013-12-12 05:35:00,
2013-12-12 00:40:00,33.6,15.6,30.12,East,80,8.1,10.5,47,0.00,,CLR,0.00,VWS V14.01,2013-12-12 05:40:00,
2013-12-12 00:45:00,33.6,15.6,30.15,NNE,22,8.7,8.7,47,0.00,,CLR,0.00,VWS V14.01,2013-12-12 05:45:00,
2013-12-12 00:50:00,33.6,15.6,30.15,North,9,4.9,7.6,47,0.00,,CLR,0.00,VWS V14.01,2013-12-12 05:50:00,
2013-12-12 00:55:00,33.4,15.4,30.15,ENE,65,3.1,5.8,47,0.00,,CLR,0.00,VWS V14.01,2013-12-12 05:55:00,
2013-12-12 01:00:00,32.9,14.9,30.15,ENE,60,3.6,4.0,47,0.00,,CLR,0.00,VWS V14.01,2013-12-12 06:00:00,
2013-12-12 01:05:00,33.1,15.1,30.15,North,7,2.7,8.1,47,0.00,,CLR,0.00,VWS V14.01,2013-12-12 06:05:00,
2013-12-12 01:10:00,32.9,14.9,30.15,NNE,25,5.4,8.3,47,0.00,,CLR,0.00,VWS V14.01,2013-12-12 06:10:00,
2013-12-12 01:15:00,32.7,14.7,30.12,NE,36,3.1,8.1,47,0.00,,CLR,0.00,VWS V14.01,2013-12-12 06:15:00,
2013-12-12 01:21:00,32.7,14.7,30.12,ENE,63,5.4,6.3,47,0.00,,CLR,0.00,VWS V14.01,2013-12-12 06:21:00,
2013-12-12 01:26:00,32.7,14.7,30.12,ENE,60,8.3,10.1,47,0.00,,CLR,0.00,VWS V14.01,2013-12-12 06:26:00,
2013-12-12 01:31:00,32.5,14.6,30.12,East,92,3.1,8.3,47,0.00,,CLR,0.00,VWS V14.01,2013-12-12 06:31:00,
2013-12-12 01:36:00,32.7,14.7,30.12,ENE,57,3.1,12.3,47,0.00,,CLR,0.00,VWS V14.01,2013-12-12 06:36:00,
2013-12-12 01:41:00,32.5,14.6,30.12,East,91,5.4,10.1,47,0.00,,CLR,0.00,VWS V14.01,2013-12-12 06:41:00,
2013-12-12 01:46:00,32.2,14.2,30.15,NE,54,3.1,8.1,47,0.00,,CLR,0.00,VWS V14.01,2013-12-12 06:46:00,
2013-12-12 01:51:00,32.2,14.2,30.15,North,353,4.0,6.3,47,0.00,,CLR,0.00,VWS V14.01,2013-12-12 06:51:00,
2013-12-12 01:56:00,32.2,14.2,30.15,NNW,335,5.8,7.6,47,0.00,,CLR,0.00,VWS V14.01,2013-12-12 06:56:00,
2013-12-12 02:01:00,32.2,14.2,30.15,ENE,59,3.6,8.1,47,0.00,,CLR,0.00,VWS V14.01,2013-12-12 07:01:00,
2013-12-12 02:06:00,31.8,13.9,30.15,ENE,69,8.3,8.7,47,0.00,,CLR,0.00,VWS V14.01,2013-12-12 07:06:00,
2013-12-12 02:12:00,31.5,13.6,30.15,NNW,346,3.1,5.4,47,0.00,,CLR,0.00,VWS V14.01,2013-12-12 07:12:00,
2013-12-12 02:17:00,31.6,13.7,30.15,NNE,30,3.1,10.1,47,0.00,,CLR,0.00,VWS V14.01,2013-12-12 07:17:00,
2013-12-12 02:22:00,31.5,13.6,30.15,NE,40,6.3,6.3,47,0.00,,CLR,0.00,VWS V14.01,2013-12-12 07:22:00,
2013-12-12 02:27:00,31.1,13.2,30.15,NE,48,3.6,7.6,47,0.00,,CLR,0.00,VWS V14.01,2013-12-12 07:27:00,
2013-12-12 02:32:00,30.7,12.9,30.15,ENE,63,2.7,5.8,47,0.00,,CLR,0.00,VWS V14.01,2013-12-12 07:32:00,
2013-12-12 02:37:00,30.2,12.4,30.15,East,81,5.8,7.6,47,0.00,,CLR,0.00,VWS V14.01,2013-12-12 07:37:00,
2013-12-12 02:42:00,30.2,12.4,30.15,ENE,68,2.2,11.0,47,0.00,,CLR,0.00,VWS V14.01,2013-12-12 07:42:00,
2013-12-12 02:47:00,30.4,12.6,30.15,ENE,70,5.8,10.5,47,0.00,,CLR,0.00,VWS V14.01,2013-12-12 07:47:00,
2013-12-12 02:52:00,30.2,12.4,30.15,ENE,57,2.7,8.3,47,0.00,,CLR,0.00,VWS V14.01,2013-12-12 07:52:00,
2013-12-12 02:57:00,30.2,12.4,30.15,NE,46,4.9,8.3,47,0.00,,CLR,0.00,VWS V14.01,2013-12-12 07:57:00,
2013-12-12 03:02:00,29.8,12.1,30.15,NNE,15,11.0,11.0,47,0.00,,CLR,0.00,VWS V14.01,2013-12-12 08:02:00,
2013-12-12 03:07:00,30.0,12.2,30.15,NNE,25,4.0,9.6,47,0.00,,CLR,0.00,VWS V14.01,2013-12-12 08:07:00,
2013-12-12 03:13:00,29.7,11.9,30.15,ENE,67,4.0,8.1,47,0.00,,CLR,0.00,VWS V14.01,2013-12-12 08:13:00,
2013-12-12 03:18:00,29.8,12.1,30.15,North,353,3.6,5.4,47,0.00,,CLR,0.00,VWS V14.01,2013-12-12 08:18:00,
2013-12-12 03:23:00,29.5,11.8,30.15,ENE,64,7.6,9.2,47,0.00,,CLR,0.00,VWS V14.01,2013-12-12 08:23:00,
2013-12-12 03:28:00,29.5,11.8,30.12,NNE,12,3.1,5.8,47,0.00,,CLR,0.00,VWS V14.01,2013-12-12 08:28:00,
2013-12-12 03:33:00,29.1,11.4,30.12,NE,41,4.0,7.2,47,0.00,,CLR,0.00,VWS V14.01,2013-12-12 08:33:00,
2013-12-12 03:38:00,29.1,11.4,30.12,NE,52,2.7,5.4,47,0.00,,CLR,0.00,VWS V14.01,2013-12-12 08:38:00,
2013-12-12 03:43:00,28.9,11.2,30.12,ENE,78,4.0,6.3,47,0.00,,CLR,0.00,VWS V14.01,2013-12-12 08:43:00,
2013-12-12 03:48:00,28.9,11.2,30.12,ENE,57,4.0,6.3,47,0.00,,CLR,0.00,VWS V14.01,2013-12-12 08:48:00,
2013-12-12 03:53:00,29.1,11.4,30.12,ENE,58,6.3,8.3,47,0.00,,CLR,0.00,VWS V14.01,2013-12-12 08:53:00,
2013-12-12 03:58:00,28.9,11.2,30.12,NW,319,9.2,9.2,47,0.00,,CLR,0.00,VWS V14.01,2013-12-12 08:58:00,
2013-12-12 04:04:00,28.6,10.9,30.12,ESE,102,4.0,6.3,47,0.00,,CLR,0.00,VWS V14.01,2013-12-12 09:04:00,
2013-12-12 04:09:00,28.6,10.9,30.12,NNE,20,4.9,7.6,47,0.00,,CLR,0.00,VWS V14.01,2013-12-12 09:09:00,
2013-12-12 04:14:00,28.6,10.9,30.12,NNE,27,4.0,8.1,47,0.00,,CLR,0.00,VWS V14.01,2013-12-12 09:14:00,
2013-12-12 04:19:00,28.4,10.8,30.12,ENE,77,5.8,5.8,47,0.00,,CLR,0.00,VWS V14.01,2013-12-12 09:19:00,
2013-12-12 04:24:00,28.2,10.6,30.12,ENE,67,3.6,10.1,47,0.00,,CLR,0.00,VWS V14.01,2013-12-12 09:24:00,
2013-12-12 04:29:00,28.0,10.4,30.12,NNE,14,3.6,7.6,47,0.00,,CLR,0.00,VWS V14.01,2013-12-12 09:29:00,
2013-12-12 04:34:00,28.0,10.4,30.12,ENE,75,3.1,8.1,47,0.00,,CLR,0.00,VWS V14.01,2013-12-12 09:34:00,
2013-12-12 04:39:00,28.0,10.4,30.12,NE,46,4.0,10.1,47,0.00,,CLR,0.00,VWS V14.01,2013-12-12 09:39:00,
2013-12-12 04:44:00,28.0,10.4,30.12,North,10,3.1,6.3,47,0.00,,CLR,0.00,VWS V14.01,2013-12-12 09:44:00,
2013-12-12 04:49:00,28.2,10.6,30.12,NNW,346,2.7,8.1,47,0.00,,CLR,0.00,VWS V14.01,2013-12-12 09:49:00,
2013-12-12 04:55:00,28.2,10.6,30.12,NNE,33,2.7,8.1,47,0.00,,CLR,0.00,VWS V14.01,2013-12-12 09:55:00,
2013-12-12 05:00:00,28.0,10.4,30.12,ENE,65,5.4,5.4,47,0.00,,CLR,0.00,VWS V14.01,2013-12-12 10:00:00,
2013-12-12 05:05:00,27.9,10.3,30.12,East,88,3.6,8.1,47,0.00,,CLR,0.00,VWS V14.01,2013-12-12 10:05:00,
2013-12-12 05:10:00,27.9,10.3,30.12,NNE,18,0.0,5.8,47,0.00,,CLR,0.00,VWS V14.01,2013-12-12 10:10:00,
2013-12-12 05:15:00,27.5,9.9,30.12,ENE,57,5.4,5.8,47,0.00,,CLR,0.00,VWS V14.01,2013-12-12 10:15:00,
2013-12-12 05:20:00,27.3,9.8,30.12,ENE,62,3.6,4.0,47,0.00,,CLR,0.00,VWS V14.01,2013-12-12 10:20:00,
2013-12-12 05:25:00,27.3,9.8,30.12,East,85,3.6,8.1,47,0.00,,CLR,0.00,VWS V14.01,2013-12-12 10:25:00,
2013-12-12 05:30:00,27.3,9.8,30.12,North,9,3.6,6.3,47,0.00,,CLR,0.00,VWS V14.01,2013-12-12 10:30:00,
2013-12-12 05:35:00,27.1,9.6,30.12,North,6,8.1,8.7,47,0.00,,CLR,0.00,VWS V14.01,2013-12-12 10:35:00,
2013-12-12 05:40:00,27.5,9.9,30.12,NNE,31,11.0,11.0,47,0.00,,CLR,0.00,VWS V14.01,2013-12-12 10:40:00,
2013-12-12 05:45:00,27.5,9.9,30.15,NE,45,9.2,11.4,47,0.00,,CLR,0.00,VWS V14.01,2013-12-12 10:45:00,
2013-12-12 05:51:00,27.5,9.9,30.15,NNW,327,0.0,6.3,47,0.00,,CLR,0.00,VWS V14.01,2013-12-12 10:51:00,
2013-12-12 05:56:00,27.5,9.9,30.15,NNE,28,3.1,6.3,47,0.00,,CLR,0.00,VWS V14.01,2013-12-12 10:56:00,
2013-12-12 06:01:00,27.3,9.8,30.15,NNW,345,0.0,10.5,47,0.00,,CLR,0.00,VWS V14.01,2013-12-12 11:01:00,
2013-12-12 06:06:00,27.3,9.8,30.15,NW,324,5.8,8.7,47,0.00,,CLR,0.00,VWS V14.01,2013-12-12 11:06:00,
2013-12-12 06:11:00,27.0,9.4,30.15,NE,53,5.4,6.7,47,0.00,,CLR,0.00,VWS V14.01,2013-12-12 11:11:00,
2013-12-12 06:16:00,27.0,9.4,30.15,ENE,60,2.7,9.2,47,0.00,,CLR,0.00,VWS V14.01,2013-12-12 11:16:00,
2013-12-12 06:21:00,26.8,9.3,30.15,NE,54,4.0,8.3,47,0.00,,CLR,0.00,VWS V14.01,2013-12-12 11:21:00,
2013-12-12 06:26:00,26.6,9.6,30.15,ENE,61,2.7,12.8,48,0.00,,CLR,0.00,VWS V14.01,2013-12-12 11:26:00,
2013-12-12 06:31:00,27.0,9.4,30.15,East,90,5.8,10.5,47,0.00,,CLR,0.00,VWS V14.01,2013-12-12 11:31:00,
2013-12-12 06:36:00,27.0,9.4,30.15,ENE,57,8.7,10.5,47,0.00,,CLR,0.00,VWS V14.01,2013-12-12 11:36:00,
2013-12-12 06:42:00,27.0,9.4,30.15,NE,51,4.9,7.6,47,0.00,,CLR,0.00,VWS V14.01,2013-12-12 11:42:00,
2013-12-12 06:47:00,26.8,9.3,30.15,NE,54,8.1,8.1,47,0.00,,CLR,0.00,VWS V14.01,2013-12-12 11:47:00,
2013-12-12 06:52:00,27.1,9.6,30.15,ENE,67,7.2,9.2,47,0.00,,CLR,0.00,VWS V14.01,2013-12-12 11:52:00,
2013-12-12 06:57:00,26.8,9.3,30.18,ENE,62,5.8,9.2,47,0.00,,CLR,0.00,VWS V14.01,2013-12-12 11:57:00,
2013-12-12 07:02:00,26.6,9.6,30.18,ENE,72,10.1,12.3,48,0.00,,CLR,0.00,VWS V14.01,2013-12-12 12:02:00,
2013-12-12 07:07:00,26.4,9.4,30.18,NE,52,3.6,5.4,48,0.00,,CLR,0.00,VWS V14.01,2013-12-12 12:07:00,
2013-12-12 07:12:00,26.2,9.2,30.18,ENE,59,4.0,8.1,48,0.00,,CLR,0.00,VWS V14.01,2013-12-12 12:12:00,
2013-12-12 07:17:00,26.2,9.2,30.18,NE,35,6.3,7.2,48,0.00,,CLR,0.00,VWS V14.01,2013-12-12 12:17:00,
2013-12-12 07:22:00,26.1,9.1,30.18,North,2,2.7,5.8,48,0.00,,CLR,0.00,VWS V14.01,2013-12-12 12:22:00,
2013-12-12 07:27:00,26.2,9.2,30.18,East,87,5.4,5.4,48,0.00,,CLR,0.00,VWS V14.01,2013-12-12 12:27:00,
2013-12-12 07:32:00,26.1,9.1,30.18,WNW,297,4.0,5.8,48,0.00,,CLR,0.00,VWS V14.01,2013-12-12 12:32:00,
2013-12-12 07:38:00,26.1,9.1,30.18,North,353,5.8,8.7,48,0.00,,CLR,0.00,VWS V14.01,2013-12-12 12:38:00,
2013-12-12 07:43:00,26.1,9.1,30.18,NE,37,4.0,8.7,48,0.00,,CLR,0.00,VWS V14.01,2013-12-12 12:43:00,
2013-12-12 07:48:00,26.1,9.1,30.18,North,9,4.9,5.4,48,0.00,,CLR,0.00,VWS V14.01,2013-12-12 12:48:00,
2013-12-12 07:53:00,26.1,9.1,30.18,North,0,4.9,7.6,48,0.00,,CLR,0.00,VWS V14.01,2013-12-12 12:53:00,
2013-12-12 07:58:00,26.2,9.2,30.21,NNE,23,3.6,7.2,48,0.00,,CLR,0.00,VWS V14.01,2013-12-12 12:58:00,
2013-12-12 08:03:00,26.2,9.2,30.21,ENE,58,5.4,8.1,48,0.00,,CLR,0.00,VWS V14.01,2013-12-12 13:03:00,
2013-12-12 08:08:00,26.8,9.3,30.21,North,357,4.9,5.4,47,0.00,,CLR,0.00,VWS V14.01,2013-12-12 13:08:00,
2013-12-12 08:13:00,27.0,9.4,30.21,North,7,2.7,8.7,47,0.00,,CLR,0.00,VWS V14.01,2013-12-12 13:13:00,
2013-12-12 08:18:00,27.1,9.6,30.21,ENE,64,5.8,8.3,47,0.00,,CLR,0.00,VWS V14.01,2013-12-12 13:18:00,
2013-12-12 08:23:00,27.3,9.8,30.21,NE,47,7.6,8.3,47,0.00,,CLR,0.00,VWS V14.01,2013-12-12 13:23:00,
2013-12-12 08:28:00,27.5,9.9,30.18,NNW,336,4.0,5.4,47,0.00,,CLR,0.00,VWS V14.01,2013-12-12 13:28:00,
2013-12-12 08:34:00,27.7,10.1,30.18,NE,46,8.3,8.3,47,0.00,,CLR,0.00,VWS V14.01,2013-12-12 13:34:00,
2013-12-12 08:39:00,27.9,10.3,30.18,ENE,78,8.1,8.1,47,0.00,,CLR,0.00,VWS V14.01,2013-12-12 13:39:00,
2013-12-12 08:44:00,28.0,10.4,30.21,ESE,104,7.2,10.1,47,0.00,,CLR,0.00,VWS V14.01,2013-12-12 13:44:00,
2013-12-12 08:49:00,28.2,10.6,30.21,NNW,338,4.9,8.7,47,0.00,,CLR,0.00,VWS V14.01,2013-12-12 13:49:00,
2013-12-12 08:54:00,28.4,10.8,30.21,East,80,6.3,10.5,47,0.00,,CLR,0.00,VWS V14.01,2013-12-12 13:54:00,
2013-12-12 08:59:00,28.6,10.9,30.21,NE,37,3.6,11.0,47,0.00,,CLR,0.00,VWS V14.01,2013-12-12 13:59:00,
2013-12-12 09:04:00,28.6,10.9,30.21,ENE,70,3.1,10.5,47,0.00,,CLR,0.00,VWS V14.01,2013-12-12 14:04:00,
2013-12-12 09:09:00,28.8,11.1,30.21,NE,55,6.3,6.3,47,0.00,,CLR,0.00,VWS V14.01,2013-12-12 14:09:00,
2013-12-12 09:14:00,29.1,11.4,30.21,NNW,340,3.6,8.7,47,0.00,,CLR,0.00,VWS V14.01,2013-12-12 14:14:00,
2013-12-12 09:19:00,29.1,11.4,30.21,ENE,70,5.4,6.3,47,0.00,,CLR,0.00,VWS V14.01,2013-12-12 14:19:00,
2013-12-12 09:24:00,29.3,11.6,30.21,ENE,62,5.8,5.8,47,0.00,,CLR,0.00,VWS V14.01,2013-12-12 14:24:00,
2013-12-12 09:30:00,29.7,11.9,30.21,NE,51,3.1,9.2,47,0.00,,CLR,0.00,VWS V14.01,2013-12-12 14:30:00,
2013-12-12 09:35:00,29.8,12.1,30.21,ENE,58,5.4,8.1,47,0.00,,CLR,0.00,VWS V14.01,2013-12-12 14:35:00,
2013-12-12 09:40:00,30.0,12.2,30.21,NNW,348,6.7,6.7,47,0.00,,CLR,0.00,VWS V14.01,2013-12-12 14:40:00,
2013-12-12 09:45:00,30.2,12.4,30.21,NNE,16,3.6,6.7,47,0.00,,CLR,0.00,VWS V14.01,2013-12-12 14:45:00,
2013-12-12 09:50:00,30.7,12.9,30.21,ENE,72,0.0,7.6,47,0.00,,CLR,0.00,VWS V14.01,2013-12-12 14:50:00,
2013-12-12 09:55:00,31.3,13.4,30.21,NE,51,6.3,6.3,47,0.00,,CLR,0.00,VWS V14.01,2013-12-12 14:55:00,
2013-12-12 10:00:00,32.0,14.1,30.21,NNE,33,11.0,11.0,47,0.00,,CLR,0.00,VWS V14.01,2013-12-12 15:00:00,
2013-12-12 10:05:00,32.7,14.7,30.21,ENE,60,7.6,11.0,47,0.00,,CLR,0.00,VWS V14.01,2013-12-12 15:05:00,
2013-12-12 10:10:00,34.0,15.4,30.21,NE,35,4.9,12.3,46,0.00,,CLR,0.00,VWS V14.01,2013-12-12 15:10:00,
2013-12-12 10:15:00,36.5,17.7,30.21,NNW,344,8.1,8.1,46,0.00,,CLR,0.00,VWS V14.01,2013-12-12 15:15:00,
2013-12-12 10:20:00,37.8,18.3,30.21,NE,47,3.6,8.1,45,0.00,,CLR,0.00,VWS V14.01,2013-12-12 15:20:00,
2013-12-12 10:26:00,37.6,18.2,30.21,East,93,5.4,8.3,45,0.00,,CLR,0.00,VWS V14.01,2013-12-12 15:26:00,
2013-12-12 10:31:00,37.6,18.2,30.24,NE,50,7.2,7.2,45,0.00,,CLR,0.00,VWS V14.01,2013-12-12 15:31:00,
2013-12-12 10:36:00,38.7,19.2,30.24,North,357,5.4,10.5,45,0.00,,CLR,0.00,VWS V14.01,2013-12-12 15:36:00,
2013-12-12 10:41:00,40.5,20.8,30.24,NE,48,5.4,8.1,45,0.00,,CLR,0.00,VWS V14.01,2013-12-12 15:41:00,
2013-12-12 10:46:00,40.3,20.6,30.21,NE,35,7.6,8.7,45,0.00,,CLR,0.00,VWS V14.01,2013-12-12 15:46:00,
2013-12-12 10:51:00,38.7,19.2,30.21,North,357,3.6,8.3,45,0.00,,CLR,0.00,VWS V14.01,2013-12-12 15:51:00,
2013-12-12 10:56:00,38.1,18.7,30.21,NE,56,2.7,8.3,45,0.00,,CLR,0.00,VWS V14.01,2013-12-12 15:56:00,
2013-12-12 11:01:00,37.6,18.2,30.21,NE,46,5.4,7.2,45,0.00,,CLR,0.00,VWS V14.01,2013-12-12 16:01:00,
2013-12-12 11:06:00,38.7,19.2,30.21,North,357,3.1,7.6,45,0.00,,CLR,0.00,VWS V14.01,2013-12-12 16:06:00,
2013-12-12 11:11:00,40.5,20.8,30.21,NE,46,5.8,6.3,45,0.00,,CLR,0.00,VWS V14.01,2013-12-12 16:11:00,
2013-12-12 11:17:00,39.2,19.7,30.21,ENE,64,8.3,8.3,45,0.00,,CLR,0.00,VWS V14.01,2013-12-12 16:17:00,
2013-12-12 11:22:00,40.6,21.0,30.21,NE,45,3.6,4.0,45,0.00,,CLR,0.00,VWS V14.01,2013-12-12 16:22:00,
2013-12-12 11:27:00,44.6,24.0,30.21,NW,325,0.0,5.8,44,0.00,,CLR,0.00,VWS V14.01,2013-12-12 16:27:00,
2013-12-12 11:32:00,44.6,24.0,30.21,NW,322,6.3,8.7,44,0.00,,CLR,0.00,VWS V14.01,2013-12-12 16:32:00,
2013-12-12 11:37:00,43.2,22.7,30.21,NE,34,3.6,5.4,44,0.00,,CLR,0.00,VWS V14.01,2013-12-12 16:37:00,
2013-12-12 11:42:00,42.8,22.4,30.21,NE,52,4.9,4.9,44,0.00,,CLR,0.00,VWS V14.01,2013-12-12 16:42:00,
2013-12-12 11:47:00,43.3,22.9,30.21,ESE,108,3.6,8.1,44,0.00,,CLR,0.00,VWS V14.01,2013-12-12 16:47:00,
2013-12-12 11:52:00,40.8,21.1,30.21,NNW,332,3.1,8.7,45,0.00,,CLR,0.00,VWS V14.01,2013-12-12 16:52:00,
2013-12-12 11:57:00,43.7,23.2,30.21,North,2,6.3,7.6,44,0.00,,CLR,0.00,VWS V14.01,2013-12-12 16:57:00,
2013-12-12 12:02:00,45.3,24.7,30.21,NNW,346,3.1,7.6,44,0.00,,CLR,0.00,VWS V14.01,2013-12-12 17:02:00,
2013-12-12 12:08:00,46.0,25.4,30.21,NE,36,5.4,8.7,44,0.00,,CLR,0.00,VWS V14.01,2013-12-12 17:08:00,
2013-12-12 12:13:00,46.9,25.6,30.21,NW,320,8.3,8.7,43,0.00,,CLR,0.00,VWS V14.01,2013-12-12 17:13:00,
2013-12-12 12:18:00,48.0,26.6,30.21,ENE,58,8.7,9.2,43,0.00,,CLR,0.00,VWS V14.01,2013-12-12 17:18:00,
2013-12-12 12:23:00,50.2,28.6,30.21,NE,54,5.8,8.3,43,0.00,,CLR,0.00,VWS V14.01,2013-12-12 17:23:00,
2013-12-12 12:28:00,48.2,26.8,30.18,ESE,114,0.0,6.7,43,0.00,,CLR,0.00,VWS V14.01,2013-12-12 17:28:00,
2013-12-12 12:33:00,50.2,28.6,30.18,NW,314,3.6,4.9,43,0.00,,CLR,0.00,VWS V14.01,2013-12-12 17:33:00,
2013-12-12 12:38:00,51.3,29.5,30.18,ENE,57,2.7,5.8,43,0.00,,CLR,0.00,VWS V14.01,2013-12-12 17:38:00,
2013-12-12 12:43:00,52.3,30.0,30.18,North,2,2.7,5.8,42,0.00,,CLR,0.00,VWS V14.01,2013-12-12 17:43:00,
2013-12-12 12:48:00,54.3,31.7,30.18,ENE,70,3.1,8.3,42,0.00,,CLR,0.00,VWS V14.01,2013-12-12 17:48:00,
2013-12-12 12:53:00,48.9,27.4,30.18,ENE,68,4.0,6.7,43,0.00,,CLR,0.00,VWS V14.01,2013-12-12 17:53:00,
2013-12-12 12:58:00,47.3,26.0,30.18,SE,146,3.1,5.4,43,0.00,,CLR,0.00,VWS V14.01,2013-12-12 17:58:00,
2013-12-12 13:04:00,48.4,26.9,30.18,ENE,63,4.0,7.6,43,0.00,,CLR,0.00,VWS V14.01,2013-12-12 18:04:00,
2013-12-12 13:09:00,46.8,25.5,30.18,North,353,4.0,9.6,43,0.00,,CLR,0.00,VWS V14.01,2013-12-12 18:09:00,
2013-12-12 13:14:00,44.8,24.2,30.18,NE,48,3.6,7.6,44,0.00,,CLR,0.00,VWS V14.01,2013-12-12 18:14:00,
2013-12-12 13:19:00,45.1,24.5,30.18,North,357,0.0,11.0,44,0.00,,CLR,0.00,VWS V14.01,2013-12-12 18:19:00,
2013-12-12 13:24:00,45.9,25.2,30.18,NE,50,6.3,8.3,44,0.00,,CLR,0.00,VWS V14.01,2013-12-12 18:24:00,
2013-12-12 13:29:00,45.3,24.7,30.18,NE,54,3.6,6.3,44,0.00,,CLR,0.00,VWS V14.01,2013-12-12 18:29:00,
2013-12-12 13:34:00,45.1,24.5,30.18,NE,45,0.0,8.7,44,0.00,,CLR,0.00,VWS V14.01,2013-12-12 18:34:00,
2013-12-12 13:39:00,44.2,23.7,30.18,ENE,59,5.8,12.3,44,0.00,,CLR,0.00,VWS V14.01,2013-12-12 18:39:00,
2013-12-12 13:44:00,44.6,24.0,30.18,NE,51,3.6,5.4,44,0.00,,CLR,0.00,VWS V14.01,2013-12-12 18:44:00,
2013-12-12 13:49:00,45.5,24.9,30.18,NE,54,6.3,6.3,44,0.00,,CLR,0.00,VWS V14.01,2013-12-12 18:49:00,
2013-12-12 13:54:00,44.6,24.0,30.18,NE,54,3.6,7.6,44,0.00,,CLR,0.00,VWS V14.01,2013-12-12 18:54:00,
2013-12-12 14:00:00,44.1,23.6,30.18,NNW,330,10.1,11.0,44,0.00,,CLR,0.00,VWS V14.01,2013-12-12 19:00:00,
2013-12-12 14:05:00,42.3,22.5,30.18,East,86,10.1,10.1,45,0.00,,CLR,0.00,VWS V14.01,2013-12-12 19:05:00,
2013-12-12 14:10:00,42.3,22.5,30.18,ENE,77,5.4,7.2,45,0.00,,CLR,0.00,VWS V14.01,2013-12-12 19:10:00,
2013-12-12 14:15:00,41.9,22.1,30.18,NE,47,3.6,11.0,45,0.00,,CLR,0.00,VWS V14.01,2013-12-12 19:15:00,
2013-12-12 14:20:00,42.6,22.8,30.18,NE,55,6.3,8.7,45,0.00,,CLR,0.00,VWS V14.01,2013-12-12 19:20:00,
2013-12-12 14:25:00,41.9,22.1,30.18,WNW,290,4.9,7.6,45,0.00,,CLR,0.00,VWS V14.01,2013-12-12 19:25:00,
2013-12-12 14:30:00,41.2,21.5,30.18,East,89,2.7,5.4,45,0.00,,CLR,0.00,VWS V14.01,2013-12-12 19:30:00,
2013-12-12 14:35:00,41.0,21.3,30.18,NE,54,5.4,8.7,45,0.00,,CLR,0.00,VWS V14.01,2013-12-12 19:35:00,
2013-12-12 14:40:00,44.4,23.9,30.18,NNW,348,5.4,10.1,44,0.00,,CLR,0.00,VWS V14.01,2013-12-12 19:40:00,
2013-12-12 14:45:00,45.0,24.4,30.18,East,90,5.4,8.3,44,0.00,,CLR,0.00,VWS V14.01,2013-12-12 19:45:00,
2013-12-12 14:50:00,45.3,24.7,30.18,NNW,342,3.6,7.6,44,0.00,,CLR,0.00,VWS V14.01,2013-12-12 19:50:00,
2013-12-12 14:56:00,44.4,23.9,30.18,NW,324,5.8,6.3,44,0.00,,CLR,0.00,VWS V14.01,2013-12-12 19:56:00,
2013-12-12 15:01:00,41.5,21.8,30.18,North,10,5.4,8.1,45,0.00,,CLR,0.00,VWS V14.01,2013-12-12 20:01:00,
2013-12-12 15:06:00,41.7,22.0,30.18,ENE,68,5.8,7.6,45,0.00,,CLR,0.00,VWS V14.01,2013-12-12 20:06:00,
2013-12-12 15:11:00,44.2,23.7,30.18,NE,50,4.0,5.4,44,0.00,,CLR,0.00,VWS V14.01,2013-12-12 20:11:00,
2013-12-12 15:16:00,45.3,24.7,30.18,ENE,63,6.7,9.6,44,0.00,,CLR,0.00,VWS V14.01,2013-12-12 20:16:00,
2013-12-12 15:21:00,45.0,24.4,30.18,ENE,76,3.1,4.9,44,0.00,,CLR,0.00,VWS V14.01,2013-12-12 20:21:00,
2013-12-12 15:26:00,44.1,23.6,30.18,NNE,19,3.6,6.3,44,0.00,,CLR,0.00,VWS V14.01,2013-12-12 20:26:00,
2013-12-12 15:31:00,43.5,23.1,30.18,NNW,328,4.0,8.1,44,0.00,,CLR,0.00,VWS V14.01,2013-12-12 20:31:00,
2013-12-12 15:36:00,45.3,24.7,30.18,ENE,63,4.9,7.6,44,0.00,,CLR,0.00,VWS V14.01,2013-12-12 20:36:00,
2013-12-12 15:41:00,45.9,25.2,30.18,ENE,62,2.7,7.2,44,0.00,,CLR,0.00,VWS V14.01,2013-12-12 20:41:00,
2013-12-12 15:46:00,45.7,25.0,30.18,NNW,330,3.1,4.9,44,0.00,,CLR,0.00,VWS V14.01,2013-12-12 20:46:00,
2013-12-12 15:52:00,46.6,25.3,30.18,NNE,18,2.7,5.8,43,0.00,,CLR,0.00,VWS V14.01,2013-12-12 20:52:00,
2013-12-12 15:57:00,48.0,26.6,30.18,NE,54,3.1,4.9,43,0.00,,CLR,0.00,VWS V14.01,2013-12-12 20:57:00,
2013-12-12 16:02:00,47.1,25.8,30.18,North,2,9.6,9.6,43,0.00,,CLR,0.00,VWS V14.01,2013-12-12 21:02:00,
2013-12-12 16:07:00,44.8,24.2,30.18,NE,52,5.4,6.3,44,0.00,,CLR,0.00,VWS V14.01,2013-12-12 21:07:00,
2013-12-12 16:12:00,43.3,22.9,30.18,ENE,74,2.7,6.7,44,0.00,,CLR,0.00,VWS V14.01,2013-12-12 21:12:00,
2013-12-12 16:17:00,42.8,22.4,30.18,NE,40,5.8,8.7,44,0.00,,CLR,0.00,VWS V14.01,2013-12-12 21:17:00,
2013-12-12 16:22:00,41.9,22.1,30.18,NW,322,3.1,7.2,45,0.00,,CLR,0.00,VWS V14.01,2013-12-12 21:22:00,
2013-12-12 16:25:00,41.7,22.0,30.18,NE,34,2.7,6.7,45,0.00,,CLR,0.00,VWS V14.01,2013-12-12 21:25:00,
2013-12-12 16:30:00,42.1,22.3,30.18,NE,38,4.0,5.4,45,0.00,,CLR,0.00,VWS V14.01,2013-12-12 21:30:00,
2013-12-12 16:35:00,39.9,20.3,30.18,NE,55,5.8,7.2,45,0.00,,CLR,0.00,VWS V14.01,2013-12-12 21:35:00,
2013-12-12 16:40:00,37.6,18.2,30.18,NNE,15,2.2,3.6,45,0.00,,CLR,0.00,VWS V14.01,2013-12-12 21:40:00,
2013-12-12 16:46:00,36.1,17.4,30.18,NE,42,0.0,6.7,46,0.00,,CLR,0.00,VWS V14.01,2013-12-12 21:46:00,
2013-12-12 16:51:00,35.4,16.7,30.18,NW,315,4.0,4.0,46,0.00,,CLR,0.00,VWS V14.01,2013-12-12 21:51:00,
2013-12-12 16:56:00,34.7,16.0,30.18,North,353,0.0,3.6,46,0.00,,CLR,0.00,VWS V14.01,2013-12-12 21:56:00,
2013-12-12 17:01:00,34.0,15.4,30.18,NNE,28,2.7,3.6,46,0.00,,CLR,0.00,VWS V14.01,2013-12-12 22:01:00,
2013-12-12 17:06:00,34.0,15.4,30.18,North,2,2.7,6.3,46,0.00,,CLR,0.00,VWS V14.01,2013-12-12 22:06:00,
2013-12-12 17:11:00,33.6,15.6,30.18,ENE,59,0.0,2.7,47,0.00,,CLR,0.00,VWS V14.01,2013-12-12 22:11:00,
2013-12-12 17:16:00,33.1,15.1,30.18,NE,46,2.7,3.6,47,0.00,,CLR,0.00,VWS V14.01,2013-12-12 22:16:00,
2013-12-12 17:21:00,32.4,14.4,30.18,NNW,332,0.0,4.0,47,0.00,,CLR,0.00,VWS V14.01,2013-12-12 22:21:00,
2013-12-12 17:26:00,32.2,14.2,30.18,North,353,2.7,3.1,47,0.00,,CLR,0.00,VWS V14.01,2013-12-12 22:26:00,
2013-12-12 17:31:00,31.8,13.9,30.18,NNE,31,3.1,4.9,47,0.00,,CLR,0.00,VWS V14.01,2013-12-12 22:31:00,
2013-12-12 17:36:00,31.8,13.9,30.18,NNW,343,2.2,3.1,47,0.00,,CLR,0.00,VWS V14.01,2013-12-12 22:36:00,
2013-12-12 17:42:00,31.5,13.6,30.18,NW,321,3.6,3.6,47,0.00,,CLR,0.00,VWS V14.01,2013-12-12 22:42:00,
2013-12-12 17:47:00,31.1,13.2,30.18,NE,51,2.7,4.0,47,0.00,,CLR,0.00,VWS V14.01,2013-12-12 22:47:00,
2013-12-12 17:52:00,30.7,12.9,30.18,NNE,15,0.0,3.1,47,0.00,,CLR,0.00,VWS V14.01,2013-12-12 22:52:00,
2013-12-12 17:57:00,30.2,12.4,30.18,ENE,61,0.0,0.0,47,0.00,,CLR,0.00,VWS V14.01,2013-12-12 22:57:00,
2013-12-12 18:02:00,29.8,12.1,30.18,ENE,69,2.7,3.6,47,0.00,,CLR,0.00,VWS V14.01,2013-12-12 23:02:00,
2013-12-12 18:07:00,29.5,11.8,30.18,ENE,74,2.7,3.6,47,0.00,,CLR,0.00,VWS V14.01,2013-12-12 23:07:00,
2013-12-12 18:12:00,29.3,11.6,30.18,ENE,73,3.1,3.1,47,0.00,,CLR,0.00,VWS V14.01,2013-12-12 23:12:00,
2013-12-12 18:18:00,29.1,11.4,30.18,ENE,60,3.1,4.9,47,0.00,,CLR,0.00,VWS V14.01,2013-12-12 23:18:00,
2013-12-12 18:23:00,28.8,11.1,30.18,ENE,73,0.0,3.6,47,0.00,,CLR,0.00,VWS V14.01,2013-12-12 23:23:00,
2013-12-12 18:28:00,28.6,10.9,30.18,ENE,64,3.6,3.6,47,0.00,,CLR,0.00,VWS V14.01,2013-12-12 23:28:00,
2013-12-12 18:33:00,28.2,10.6,30.18,ENE,59,0.0,4.0,47,0.00,,CLR,0.00,VWS V14.01,2013-12-12 23:33:00,
2013-12-12 18:38:00,28.2,10.6,30.18,East,91,0.0,4.0,47,0.00,,CLR,0.00,VWS V14.01,2013-12-12 23:38:00,
2013-12-12 18:44:00,28.0,10.4,30.18,ENE,78,2.7,2.7,47,0.00,,CLR,0.00,VWS V14.01,2013-12-12 23:44:00,
2013-12-12 18:49:00,27.7,10.1,30.18,ENE,68,0.0,0.0,47,0.00,,CLR,0.00,VWS V14.01,2013-12-12 23:49:00,
2013-12-12 18:54:00,27.5,9.9,30.18,ENE,57,2.7,3.6,47,0.00,,CLR,0.00,VWS V14.01,2013-12-12 23:54:00,
2013-12-12 18:59:00,27.3,9.8,30.21,ENE,69,0.0,3.1,47,0.00,,CLR,0.00,VWS V14.01,2013-12-12 23:59:00,
2013-12-12 19:05:00,27.5,9.9,30.21,ENE,58,0.0,2.2,47,0.00,,CLR,0.00,VWS V14.01,2013-12-13 00:05:00,
2013-12-12 19:10:00,27.7,10.1,30.21,ENE,76,3.1,4.0,47,0.00,,CLR,0.00,VWS V14.01,2013-12-13 00:10:00,
2013-12-12 19:15:00,27.7,10.1,30.21,NE,37,3.1,3.1,47,0.00,,CLR,0.00,VWS V14.01,2013-12-13 00:15:00,
2013-12-12 19:20:00,27.7,10.1,30.21,ENE,57,3.6,4.9,47,0.00,,CLR,0.00,VWS V14.01,2013-12-13 00:20:00,
2013-12-12 19:25:00,28.2,10.6,30.21,ENE,74,5.4,5.4,47,0.00,,CLR,0.00,VWS V14.01,2013-12-13 00:25:00,
2013-12-12 19:30:00,28.6,10.9,30.21,NE,52,2.7,6.7,47,0.00,,CLR,0.00,VWS V14.01,2013-12-13 00:30:00,
2013-12-12 19:35:00,29.3,11.6,30.21,ENE,68,5.8,5.8,47,0.00,,CLR,0.00,VWS V14.01,2013-12-13 00:35:00,
2013-12-12 19:41:00,29.5,11.8,30.21,NE,39,3.6,3.6,47,0.00,,CLR,0.00,VWS V14.01,2013-12-13 00:41:00,
2013-12-12 19:46:00,29.1,11.4,30.21,NNW,341,2.7,4.9,47,0.00,,CLR,0.00,VWS V14.01,2013-12-13 00:46:00,
2013-12-12 19:51:00,28.9,11.2,30.21,NE,41,5.8,5.8,47,0.00,,CLR,0.00,VWS V14.01,2013-12-13 00:51:00,
2013-12-12 19:56:00,28.8,11.1,30.21,ENE,59,3.6,7.6,47,0.00,,CLR,0.00,VWS V14.01,2013-12-13 00:56:00,
2013-12-12 20:01:00,28.6,10.9,30.18,ENE,58,4.0,6.3,47,0.00,,CLR,0.00,VWS V14.01,2013-12-13 01:01:00,
2013-12-12 20:06:00,28.4,10.8,30.18,ENE,65,6.3,6.3,47,0.00,,CLR,0.00,VWS V14.01,2013-12-13 01:06:00,
2013-12-12 20:11:00,28.0,10.4,30.18,ENE,61,2.7,4.5,47,0.00,,CLR,0.00,VWS V14.01,2013-12-13 01:11:00,
2013-12-12 20:16:00,27.7,10.1,30.18,NE,49,3.1,4.0,47,0.00,,CLR,0.00,VWS V14.01,2013-12-13 01:16:00,
2013-12-12 20:21:00,27.5,9.9,30.18,ENE,71,6.3,6.3,47,0.00,,CLR,0.00,VWS V14.01,2013-12-13 01:21:00,
2013-12-12 20:26:00,27.5,9.9,30.18,NE,55,4.0,4.0,47,0.00,,CLR,0.00,VWS V14.01,2013-12-13 01:26:00,
2013-12-12 20:31:00,27.1,9.6,30.18,NE,49,0.0,4.0,47,0.00,,CLR,0.00,VWS V14.01,2013-12-13 01:31:00,
2013-12-12 20:37:00,26.8,9.3,30.18,ENE,68,2.7,3.1,47,0.00,,CLR,0.00,VWS V14.01,2013-12-13 01:37:00,
2013-12-12 20:42:00,26.6,9.6,30.18,ENE,63,0.0,2.7,48,0.00,,CLR,0.00,VWS V14.01,2013-12-13 01:42:00,
2013-12-12 20:47:00,26.4,9.4,30.18,ENE,63,0.0,0.0,48,0.00,,CLR,0.00,VWS V14.01,2013-12-13 01:47:00,
2013-12-12 20:52:00,26.4,9.4,30.18,ENE,63,0.0,0.0,48,0.00,,CLR,0.00,VWS V14.01,2013-12-13 01:52:00,
2013-12-12 20:57:00,26.6,9.6,30.18,ENE,63,0.0,0.0,48,0.00,,CLR,0.00,VWS V14.01,2013-12-13 01:57:00,
2013-12-12 21:02:00,26.4,9.4,30.18,ENE,63,0.0,0.0,48,0.00,,CLR,0.00,VWS V14.01,2013-12-13 02:02:00,
2013-12-12 21:07:00,25.9,8.9,30.18,ENE,63,0.0,0.0,48,0.00,,CLR,0.00,VWS V14.01,2013-12-13 02:07:00,
2013-12-12 21:12:00,25.9,8.9,30.18,ENE,63,0.0,0.0,48,0.00,,CLR,0.00,VWS V14.01,2013-12-13 02:12:00,
2013-12-12 21:17:00,25.5,8.6,30.18,ENE,63,0.0,0.0,48,0.00,,CLR,0.00,VWS V14.01,2013-12-13 02:17:00,
2013-12-12 21:22:00,25.3,8.4,30.18,ENE,63,0.0,0.0,48,0.00,,CLR,0.00,VWS V14.01,2013-12-13 02:22:00,
2013-12-12 21:27:00,25.0,8.1,30.18,ENE,63,0.0,0.0,48,0.00,,CLR,0.00,VWS V14.01,2013-12-13 02:27:00,
2013-12-12 21:33:00,24.6,7.7,30.18,ENE,63,0.0,0.0,48,0.00,,CLR,0.00,VWS V14.01,2013-12-13 02:33:00,
2013-12-12 21:38:00,24.4,7.6,30.18,ENE,63,0.0,0.0,48,0.00,,CLR,0.00,VWS V14.01,2013-12-13 02:38:00,
2013-12-12 21:43:00,24.3,7.4,30.18,ENE,63,0.0,0.0,48,0.00,,CLR,0.00,VWS V14.01,2013-12-13 02:43:00,
2013-12-12 21:48:00,24.1,7.2,30.18,ENE,63,0.0,0.0,48,0.00,,CLR,0.00,VWS V14.01,2013-12-13 02:48:00,
2013-12-12 21:53:00,23.7,6.9,30.18,ENE,63,0.0,0.0,48,0.00,,CLR,0.00,VWS V14.01,2013-12-13 02:53:00,
2013-12-12 21:58:00,23.7,6.9,30.18,ENE,63,0.0,0.0,48,0.00,,CLR,0.00,VWS V14.01,2013-12-13 02:58:00,
2013-12-12 22:03:00,23.5,6.8,30.18,ENE,63,0.0,0.0,48,0.00,,CLR,0.00,VWS V14.01,2013-12-13 03:03:00,
2013-12-12 22:08:00,23.4,6.6,30.18,ENE,63,0.0,0.0,48,0.00,,CLR,0.00,VWS V14.01,2013-12-13 03:08:00,
2013-12-12 22:13:00,23.5,6.8,30.18,ENE,63,0.0,0.0,48,0.00,,CLR,0.00,VWS V14.01,2013-12-13 03:13:00,
2013-12-12 22:18:00,23.5,6.8,30.18,ENE,63,0.0,0.0,48,0.00,,CLR,0.00,VWS V14.01,2013-12-13 03:18:00,
2013-12-12 22:24:00,23.2,6.4,30.18,ENE,63,0.0,0.0,48,0.00,,CLR,0.00,VWS V14.01,2013-12-13 03:24:00,
2013-12-12 22:29:00,23.2,6.4,30.18,ENE,63,0.0,0.0,48,0.00,,CLR,0.00,VWS V14.01,2013-12-13 03:29:00,
2013-12-12 22:34:00,23.2,6.4,30.18,ENE,63,0.0,0.0,48,0.00,,CLR,0.00,VWS V14.01,2013-12-13 03:34:00,
2013-12-12 22:39:00,23.0,6.7,30.18,ENE,63,0.0,0.0,49,0.00,,CLR,0.00,VWS V14.01,2013-12-13 03:39:00,
2013-12-12 22:44:00,22.8,6.5,30.18,ENE,63,0.0,0.0,49,0.00,,CLR,0.00,VWS V14.01,2013-12-13 03:44:00,
2013-12-12 22:49:00,23.0,6.7,30.18,ENE,63,0.0,0.0,49,0.00,,CLR,0.00,VWS V14.01,2013-12-13 03:49:00,
2013-12-12 22:54:00,22.8,6.5,30.18,ENE,63,0.0,0.0,49,0.00,,CLR,0.00,VWS V14.01,2013-12-13 03:54:00,
2013-12-12 22:59:00,22.5,6.2,30.18,ENE,63,0.0,0.0,49,0.00,,CLR,0.00,VWS V14.01,2013-12-13 03:59:00,
2013-12-12 23:04:00,22.3,6.0,30.18,ENE,63,0.0,0.0,49,0.00,,CLR,0.00,VWS V14.01,2013-12-13 04:04:00,
2013-12-12 23:09:00,22.1,5.9,30.18,ENE,63,0.0,0.0,49,0.00,,CLR,0.00,VWS V14.01,2013-12-13 04:09:00,
2013-12-12 23:14:00,21.9,5.7,30.18,ENE,63,0.0,0.0,49,0.00,,CLR,0.00,VWS V14.01,2013-12-13 04:14:00,
2013-12-12 23:20:00,21.9,5.7,30.18,ENE,63,0.0,0.0,49,0.00,,CLR,0.00,VWS V14.01,2013-12-13 04:20:00,
2013-12-12 23:25:00,21.7,5.5,30.18,ENE,63,0.0,0.0,49,0.00,,CLR,0.00,VWS V14.01,2013-12-13 04:25:00,
2013-12-12 23:30:00,21.6,5.4,30.18,ENE,63,0.0,0.0,49,0.00,,CLR,0.00,VWS V14.01,2013-12-13 04:30:00,
2013-12-12 23:35:00,21.7,5.5,30.18,ENE,63,0.0,0.0,49,0.00,,CLR,0.00,VWS V14.01,2013-12-13 04:35:00,
2013-12-12 23:40:00,21.9,5.7,30.18,ENE,63,0.0,0.0,49,0.00,,CLR,0.00,VWS V14.01,2013-12-13 04:40:00,
2013-12-12 23:45:00,21.9,5.7,30.18,ENE,63,0.0,0.0,49,0.00,,CLR,0.00,VWS V14.01,2013-12-13 04:45:00,
2013-12-12 23:50:00,21.9,5.7,30.18,ENE,63,0.0,0.0,49,0.00,,CLR,0.00,VWS V14.01,2013-12-13 04:50:00,
2013-12-12 23:55:00,21.7,5.5,30.18,ENE,63,0.0,0.0,49,0.00,,CLR,0.00,VWS V14.01,2013-12-13 04:55:00,